sensor_id;sensor_type;location;lat;lon;timestamp;P1;durP1;ratioP1;P2;durP2;ratioP2
32748;SDS011;19119;52.474;13.710;2023-07-24T00:02:07;6.25;;;2.88;;
32748;SDS011;19119;52.474;13.710;2023-07-24T00:04:33;4.47;;;2.53;;
32748;SDS011;19119;52.474;13.710;2023-07-24T00:06:59;4.80;;;2.80;;
32748;SDS011;19119;52.474;13.710;2023-07-24T00:09:25;5.70;;;3.20;;
32748;SDS011;19119;52.474;13.710;2023-07-24T00:11:50;3.75;;;2.70;;
32748;SDS011;19119;52.474;13.710;2023-07-24T00:14:16;6.57;;;3.38;;
32748;SDS011;19119;52.474;13.710;2023-07-24T00:16:41;4.47;;;2.70;;
32748;SDS011;19119;52.474;13.710;2023-07-24T00:19:07;5.82;;;2.55;;
32748;SDS011;19119;52.474;13.710;2023-07-24T00:21:32;3.55;;;2.58;;
32748;SDS011;19119;52.474;13.710;2023-07-24T00:23:58;4.78;;;2.90;;
32748;SDS011;19119;52.474;13.710;2023-07-24T00:26:24;5.22;;;3.28;;
32748;SDS011;19119;52.474;13.710;2023-07-24T00:28:49;6.82;;;3.20;;
32748;SDS011;19119;52.474;13.710;2023-07-24T00:31:15;4.07;;;2.60;;
32748;SDS011;19119;52.474;13.710;2023-07-24T00:33:40;6.15;;;2.97;;
32748;SDS011;19119;52.474;13.710;2023-07-24T00:36:06;4.40;;;2.60;;
32748;SDS011;19119;52.474;13.710;2023-07-24T00:38:31;3.60;;;2.75;;
32748;SDS011;19119;52.474;13.710;2023-07-24T00:40:56;4.00;;;2.50;;
32748;SDS011;19119;52.474;13.710;2023-07-24T00:43:23;4.72;;;2.78;;
32748;SDS011;19119;52.474;13.710;2023-07-24T00:45:48;4.90;;;2.67;;
32748;SDS011;19119;52.474;13.710;2023-07-24T00:48:14;6.03;;;2.80;;
32748;SDS011;19119;52.474;13.710;2023-07-24T00:50:40;6.10;;;2.83;;
32748;SDS011;19119;52.474;13.710;2023-07-24T00:53:07;5.85;;;3.13;;
32748;SDS011;19119;52.474;13.710;2023-07-24T00:55:33;4.95;;;3.42;;
32748;SDS011;19119;52.474;13.710;2023-07-24T00:57:58;4.20;;;2.58;;
32748;SDS011;19119;52.474;13.710;2023-07-24T01:00:25;4.97;;;2.70;;
32748;SDS011;19119;52.474;13.710;2023-07-24T01:02:51;5.60;;;3.03;;
32748;SDS011;19119;52.474;13.710;2023-07-24T01:05:17;3.90;;;2.63;;
32748;SDS011;19119;52.474;13.710;2023-07-24T01:07:42;4.03;;;2.95;;
32748;SDS011;19119;52.474;13.710;2023-07-24T01:10:08;7.03;;;3.83;;
32748;SDS011;19119;52.474;13.710;2023-07-24T01:15:35;6.40;;;3.08;;
32748;SDS011;19119;52.474;13.710;2023-07-24T01:18:17;8.50;;;3.00;;
32748;SDS011;19119;52.474;13.710;2023-07-24T01:20:47;7.00;;;3.05;;
32748;SDS011;19119;52.474;13.710;2023-07-24T01:26:09;5.25;;;3.72;;
32748;SDS011;19119;52.474;13.710;2023-07-24T01:28:35;5.82;;;3.20;;
32748;SDS011;19119;52.474;13.710;2023-07-24T01:31:01;6.72;;;3.33;;
32748;SDS011;19119;52.474;13.710;2023-07-24T01:33:26;5.57;;;3.17;;
32748;SDS011;19119;52.474;13.710;2023-07-24T01:35:57;5.93;;;3.55;;
32748;SDS011;19119;52.474;13.710;2023-07-24T01:38:24;6.88;;;3.40;;
32748;SDS011;19119;52.474;13.710;2023-07-24T01:40:51;4.78;;;3.03;;
32748;SDS011;19119;52.474;13.710;2023-07-24T01:43:18;5.97;;;2.85;;
32748;SDS011;19119;52.474;13.710;2023-07-24T01:45:43;4.03;;;2.75;;
32748;SDS011;19119;52.474;13.710;2023-07-24T01:48:09;4.80;;;2.80;;
32748;SDS011;19119;52.474;13.710;2023-07-24T01:50:34;4.20;;;2.80;;
32748;SDS011;19119;52.474;13.710;2023-07-24T01:53:00;4.93;;;2.92;;
32748;SDS011;19119;52.474;13.710;2023-07-24T01:55:25;6.07;;;2.90;;
32748;SDS011;19119;52.474;13.710;2023-07-24T01:57:51;5.25;;;3.20;;
32748;SDS011;19119;52.474;13.710;2023-07-24T02:00:16;4.75;;;2.85;;
32748;SDS011;19119;52.474;13.710;2023-07-24T02:02:41;5.07;;;3.03;;
32748;SDS011;19119;52.474;13.710;2023-07-24T02:05:07;4.13;;;2.83;;
32748;SDS011;19119;52.474;13.710;2023-07-24T02:07:33;4.20;;;2.72;;
32748;SDS011;19119;52.474;13.710;2023-07-24T02:09:58;5.82;;;2.65;;
32748;SDS011;19119;52.474;13.710;2023-07-24T02:12:24;6.65;;;3.20;;
32748;SDS011;19119;52.474;13.710;2023-07-24T02:14:49;5.32;;;2.55;;
32748;SDS011;19119;52.474;13.710;2023-07-24T02:17:16;3.65;;;2.55;;
32748;SDS011;19119;52.474;13.710;2023-07-24T02:19:42;5.07;;;3.03;;
32748;SDS011;19119;52.474;13.710;2023-07-24T02:22:07;8.57;;;3.08;;
32748;SDS011;19119;52.474;13.710;2023-07-24T02:24:33;6.38;;;2.50;;
32748;SDS011;19119;52.474;13.710;2023-07-24T02:26:58;4.18;;;2.70;;
32748;SDS011;19119;52.474;13.710;2023-07-24T02:29:25;4.68;;;2.35;;
32748;SDS011;19119;52.474;13.710;2023-07-24T02:31:50;3.95;;;2.10;;
32748;SDS011;19119;52.474;13.710;2023-07-24T02:34:16;4.63;;;2.40;;
32748;SDS011;19119;52.474;13.710;2023-07-24T02:36:42;4.45;;;2.08;;
32748;SDS011;19119;52.474;13.710;2023-07-24T02:39:08;4.63;;;2.22;;
32748;SDS011;19119;52.474;13.710;2023-07-24T02:41:33;5.57;;;2.40;;
32748;SDS011;19119;52.474;13.710;2023-07-24T02:43:59;4.55;;;2.20;;
32748;SDS011;19119;52.474;13.710;2023-07-24T02:46:24;3.45;;;2.10;;
32748;SDS011;19119;52.474;13.710;2023-07-24T02:48:50;3.63;;;2.35;;
32748;SDS011;19119;52.474;13.710;2023-07-24T02:51:16;2.88;;;2.28;;
32748;SDS011;19119;52.474;13.710;2023-07-24T02:53:42;4.70;;;1.83;;
32748;SDS011;19119;52.474;13.710;2023-07-24T02:56:07;3.70;;;2.28;;
32748;SDS011;19119;52.474;13.710;2023-07-24T02:58:34;3.58;;;2.10;;
32748;SDS011;19119;52.474;13.710;2023-07-24T03:01:05;4.32;;;2.05;;
32748;SDS011;19119;52.474;13.710;2023-07-24T03:03:32;4.80;;;2.25;;
32748;SDS011;19119;52.474;13.710;2023-07-24T03:05:58;3.45;;;2.30;;
32748;SDS011;19119;52.474;13.710;2023-07-24T03:08:24;5.28;;;2.20;;
32748;SDS011;19119;52.474;13.710;2023-07-24T03:10:49;3.22;;;1.65;;
32748;SDS011;19119;52.474;13.710;2023-07-24T03:13:15;6.45;;;1.88;;
32748;SDS011;19119;52.474;13.710;2023-07-24T03:15:41;5.75;;;2.03;;
32748;SDS011;19119;52.474;13.710;2023-07-24T03:18:06;4.95;;;1.95;;
32748;SDS011;19119;52.474;13.710;2023-07-24T03:20:32;3.60;;;1.77;;
32748;SDS011;19119;52.474;13.710;2023-07-24T03:22:57;2.97;;;1.83;;
32748;SDS011;19119;52.474;13.710;2023-07-24T03:25:23;4.47;;;1.88;;
32748;SDS011;19119;52.474;13.710;2023-07-24T03:27:48;4.57;;;1.95;;
32748;SDS011;19119;52.474;13.710;2023-07-24T03:30:14;3.08;;;1.67;;
32748;SDS011;19119;52.474;13.710;2023-07-24T03:32:39;4.30;;;2.33;;
32748;SDS011;19119;52.474;13.710;2023-07-24T03:35:05;3.63;;;1.85;;
32748;SDS011;19119;52.474;13.710;2023-07-24T03:37:31;2.60;;;1.67;;
32748;SDS011;19119;52.474;13.710;2023-07-24T03:39:57;3.92;;;1.83;;
32748;SDS011;19119;52.474;13.710;2023-07-24T03:42:26;2.70;;;1.60;;
32748;SDS011;19119;52.474;13.710;2023-07-24T03:44:55;6.80;;;1.63;;
32748;SDS011;19119;52.474;13.710;2023-07-24T03:47:20;3.38;;;1.50;;
32748;SDS011;19119;52.474;13.710;2023-07-24T03:49:46;5.97;;;1.90;;
32748;SDS011;19119;52.474;13.710;2023-07-24T03:52:11;2.28;;;1.38;;
32748;SDS011;19119;52.474;13.710;2023-07-24T03:54:37;4.82;;;1.80;;
32748;SDS011;19119;52.474;13.710;2023-07-24T03:57:03;3.67;;;1.63;;
32748;SDS011;19119;52.474;13.710;2023-07-24T03:59:29;4.75;;;1.60;;
32748;SDS011;19119;52.474;13.710;2023-07-24T04:01:55;2.20;;;1.35;;
32748;SDS011;19119;52.474;13.710;2023-07-24T04:04:20;2.75;;;1.65;;
32748;SDS011;19119;52.474;13.710;2023-07-24T04:06:47;5.80;;;1.80;;
32748;SDS011;19119;52.474;13.710;2023-07-24T04:09:14;2.58;;;1.30;;
32748;SDS011;19119;52.474;13.710;2023-07-24T04:11:40;4.07;;;1.45;;
32748;SDS011;19119;52.474;13.710;2023-07-24T04:14:06;2.10;;;1.15;;
32748;SDS011;19119;52.474;13.710;2023-07-24T04:16:31;2.10;;;1.25;;
32748;SDS011;19119;52.474;13.710;2023-07-24T04:18:57;2.00;;;1.08;;
32748;SDS011;19119;52.474;13.710;2023-07-24T04:21:22;5.03;;;1.40;;
32748;SDS011;19119;52.474;13.710;2023-07-24T04:23:48;2.67;;;1.65;;
32748;SDS011;19119;52.474;13.710;2023-07-24T04:26:13;2.85;;;1.67;;
32748;SDS011;19119;52.474;13.710;2023-07-24T04:28:39;2.03;;;1.30;;
32748;SDS011;19119;52.474;13.710;2023-07-24T04:31:04;3.28;;;1.23;;
32748;SDS011;19119;52.474;13.710;2023-07-24T04:33:30;2.38;;;1.45;;
32748;SDS011;19119;52.474;13.710;2023-07-24T04:35:55;3.03;;;1.13;;
32748;SDS011;19119;52.474;13.710;2023-07-24T04:38:21;2.80;;;1.23;;
32748;SDS011;19119;52.474;13.710;2023-07-24T04:40:47;2.20;;;1.40;;
32748;SDS011;19119;52.474;13.710;2023-07-24T04:43:12;2.30;;;1.27;;
32748;SDS011;19119;52.474;13.710;2023-07-24T04:45:38;3.38;;;1.23;;
32748;SDS011;19119;52.474;13.710;2023-07-24T04:48:04;2.15;;;1.25;;
32748;SDS011;19119;52.474;13.710;2023-07-24T04:50:29;1.88;;;1.20;;
32748;SDS011;19119;52.474;13.710;2023-07-24T04:52:55;3.42;;;1.60;;
32748;SDS011;19119;52.474;13.710;2023-07-24T04:55:21;1.73;;;1.13;;
32748;SDS011;19119;52.474;13.710;2023-07-24T04:57:47;3.00;;;1.45;;
32748;SDS011;19119;52.474;13.710;2023-07-24T05:00:13;2.58;;;1.13;;
32748;SDS011;19119;52.474;13.710;2023-07-24T05:02:39;3.05;;;1.25;;
32748;SDS011;19119;52.474;13.710;2023-07-24T05:05:04;2.30;;;1.05;;
32748;SDS011;19119;52.474;13.710;2023-07-24T05:07:30;2.72;;;1.50;;
32748;SDS011;19119;52.474;13.710;2023-07-24T05:09:56;1.75;;;1.10;;
32748;SDS011;19119;52.474;13.710;2023-07-24T05:12:21;2.47;;;1.27;;
32748;SDS011;19119;52.474;13.710;2023-07-24T05:14:47;2.70;;;1.25;;
32748;SDS011;19119;52.474;13.710;2023-07-24T05:17:12;1.98;;;1.35;;
32748;SDS011;19119;52.474;13.710;2023-07-24T05:19:38;1.83;;;1.25;;
32748;SDS011;19119;52.474;13.710;2023-07-24T05:22:03;1.92;;;1.00;;
32748;SDS011;19119;52.474;13.710;2023-07-24T05:24:29;2.30;;;1.15;;
32748;SDS011;19119;52.474;13.710;2023-07-24T05:26:55;2.65;;;1.05;;
32748;SDS011;19119;52.474;13.710;2023-07-24T05:29:20;2.45;;;0.95;;
32748;SDS011;19119;52.474;13.710;2023-07-24T05:31:46;3.15;;;1.67;;
32748;SDS011;19119;52.474;13.710;2023-07-24T05:34:12;4.20;;;3.03;;
32748;SDS011;19119;52.474;13.710;2023-07-24T05:36:38;9.73;;;5.88;;
32748;SDS011;19119;52.474;13.710;2023-07-24T05:39:05;6.00;;;4.00;;
32748;SDS011;19119;52.474;13.710;2023-07-24T05:41:30;8.30;;;5.03;;
32748;SDS011;19119;52.474;13.710;2023-07-24T05:43:55;8.50;;;4.57;;
32748;SDS011;19119;52.474;13.710;2023-07-24T05:46:21;6.00;;;3.28;;
32748;SDS011;19119;52.474;13.710;2023-07-24T05:48:47;14.50;;;7.30;;
32748;SDS011;19119;52.474;13.710;2023-07-24T05:51:13;13.63;;;7.78;;
32748;SDS011;19119;52.474;13.710;2023-07-24T05:53:38;6.85;;;3.35;;
32748;SDS011;19119;52.474;13.710;2023-07-24T05:56:03;9.98;;;4.90;;
32748;SDS011;19119;52.474;13.710;2023-07-24T05:58:29;5.43;;;3.13;;
32748;SDS011;19119;52.474;13.710;2023-07-24T06:00:55;5.47;;;2.15;;
32748;SDS011;19119;52.474;13.710;2023-07-24T06:03:21;2.55;;;1.35;;
32748;SDS011;19119;52.474;13.710;2023-07-24T06:05:50;2.75;;;1.33;;
32748;SDS011;19119;52.474;13.710;2023-07-24T06:10:48;2.75;;;1.70;;
32748;SDS011;19119;52.474;13.710;2023-07-24T06:13:17;1.75;;;1.13;;
32748;SDS011;19119;52.474;13.710;2023-07-24T06:15:44;1.55;;;1.08;;
32748;SDS011;19119;52.474;13.710;2023-07-24T06:18:09;1.98;;;1.30;;
32748;SDS011;19119;52.474;13.710;2023-07-24T06:20:35;3.20;;;1.20;;
32748;SDS011;19119;52.474;13.710;2023-07-24T06:23:01;2.70;;;1.30;;
32748;SDS011;19119;52.474;13.710;2023-07-24T06:25:28;4.47;;;1.60;;
32748;SDS011;19119;52.474;13.710;2023-07-24T06:27:54;2.70;;;1.42;;
32748;SDS011;19119;52.474;13.710;2023-07-24T06:30:20;1.85;;;1.08;;
32748;SDS011;19119;52.474;13.710;2023-07-24T06:32:45;2.20;;;1.40;;
32748;SDS011;19119;52.474;13.710;2023-07-24T06:35:11;2.33;;;1.50;;
32748;SDS011;19119;52.474;13.710;2023-07-24T06:37:36;2.42;;;1.67;;
32748;SDS011;19119;52.474;13.710;2023-07-24T06:40:02;5.13;;;1.58;;
32748;SDS011;19119;52.474;13.710;2023-07-24T06:42:27;4.00;;;1.40;;
32748;SDS011;19119;52.474;13.710;2023-07-24T06:44:54;1.70;;;1.23;;
32748;SDS011;19119;52.474;13.710;2023-07-24T06:47:19;2.15;;;1.27;;
32748;SDS011;19119;52.474;13.710;2023-07-24T06:49:45;2.42;;;1.65;;
32748;SDS011;19119;52.474;13.710;2023-07-24T06:52:11;2.13;;;1.50;;
32748;SDS011;19119;52.474;13.710;2023-07-24T06:54:37;2.92;;;1.60;;
32748;SDS011;19119;52.474;13.710;2023-07-24T06:57:03;2.45;;;1.40;;
32748;SDS011;19119;52.474;13.710;2023-07-24T06:59:28;3.20;;;2.05;;
32748;SDS011;19119;52.474;13.710;2023-07-24T07:01:54;2.53;;;1.70;;
32748;SDS011;19119;52.474;13.710;2023-07-24T07:04:19;3.60;;;1.60;;
32748;SDS011;19119;52.474;13.710;2023-07-24T07:06:45;3.85;;;2.45;;
32748;SDS011;19119;52.474;13.710;2023-07-24T07:09:10;2.17;;;1.50;;
32748;SDS011;19119;52.474;13.710;2023-07-24T07:11:36;6.22;;;2.08;;
32748;SDS011;19119;52.474;13.710;2023-07-24T07:14:02;2.45;;;1.90;;
32748;SDS011;19119;52.474;13.710;2023-07-24T07:16:27;2.72;;;1.60;;
32748;SDS011;19119;52.474;13.710;2023-07-24T07:18:52;4.40;;;2.13;;
32748;SDS011;19119;52.474;13.710;2023-07-24T07:21:18;3.58;;;1.80;;
32748;SDS011;19119;52.474;13.710;2023-07-24T07:23:43;3.40;;;2.72;;
32748;SDS011;19119;52.474;13.710;2023-07-24T07:26:09;2.88;;;2.03;;
32748;SDS011;19119;52.474;13.710;2023-07-24T07:28:34;3.17;;;2.20;;
32748;SDS011;19119;52.474;13.710;2023-07-24T07:31:00;3.10;;;2.33;;
32748;SDS011;19119;52.474;13.710;2023-07-24T07:33:25;3.08;;;2.30;;
32748;SDS011;19119;52.474;13.710;2023-07-24T07:35:51;5.03;;;2.75;;
32748;SDS011;19119;52.474;13.710;2023-07-24T07:38:16;3.15;;;2.05;;
32748;SDS011;19119;52.474;13.710;2023-07-24T07:40:42;2.45;;;1.77;;
32748;SDS011;19119;52.474;13.710;2023-07-24T07:43:07;2.90;;;1.92;;
32748;SDS011;19119;52.474;13.710;2023-07-24T07:45:33;3.53;;;2.03;;
32748;SDS011;19119;52.474;13.710;2023-07-24T07:47:58;4.30;;;1.95;;
32748;SDS011;19119;52.474;13.710;2023-07-24T07:50:24;3.25;;;1.83;;
32748;SDS011;19119;52.474;13.710;2023-07-24T07:52:50;4.90;;;2.30;;
32748;SDS011;19119;52.474;13.710;2023-07-24T07:55:17;3.08;;;1.88;;
32748;SDS011;19119;52.474;13.710;2023-07-24T07:57:43;2.90;;;2.08;;
32748;SDS011;19119;52.474;13.710;2023-07-24T08:00:08;3.22;;;1.90;;
32748;SDS011;19119;52.474;13.710;2023-07-24T08:02:34;4.40;;;1.98;;
32748;SDS011;19119;52.474;13.710;2023-07-24T08:05:04;3.97;;;2.05;;
32748;SDS011;19119;52.474;13.710;2023-07-24T08:07:34;3.78;;;2.10;;
32748;SDS011;19119;52.474;13.710;2023-07-24T08:09:59;3.40;;;1.77;;
32748;SDS011;19119;52.474;13.710;2023-07-24T08:12:25;4.10;;;1.70;;
32748;SDS011;19119;52.474;13.710;2023-07-24T08:14:50;2.55;;;1.83;;
32748;SDS011;19119;52.474;13.710;2023-07-24T08:17:16;6.28;;;2.03;;
32748;SDS011;19119;52.474;13.710;2023-07-24T08:19:41;2.67;;;1.95;;
32748;SDS011;19119;52.474;13.710;2023-07-24T08:22:07;3.40;;;2.00;;
32748;SDS011;19119;52.474;13.710;2023-07-24T08:24:35;2.67;;;1.77;;
32748;SDS011;19119;52.474;13.710;2023-07-24T08:27:01;2.10;;;1.55;;
32748;SDS011;19119;52.474;13.710;2023-07-24T08:29:27;2.85;;;2.03;;
32748;SDS011;19119;52.474;13.710;2023-07-24T08:31:52;3.50;;;1.70;;
32748;SDS011;19119;52.474;13.710;2023-07-24T08:34:18;3.10;;;1.60;;
32748;SDS011;19119;52.474;13.710;2023-07-24T08:36:43;5.07;;;1.77;;
32748;SDS011;19119;52.474;13.710;2023-07-24T08:39:09;2.97;;;1.70;;
32748;SDS011;19119;52.474;13.710;2023-07-24T08:41:34;3.05;;;1.60;;
32748;SDS011;19119;52.474;13.710;2023-07-24T08:44:02;6.63;;;1.73;;
32748;SDS011;19119;52.474;13.710;2023-07-24T08:46:35;3.78;;;1.63;;
32748;SDS011;19119;52.474;13.710;2023-07-24T08:49:02;2.03;;;1.40;;
32748;SDS011;19119;52.474;13.710;2023-07-24T08:51:28;4.00;;;1.65;;
32748;SDS011;19119;52.474;13.710;2023-07-24T08:53:55;3.78;;;1.45;;
32748;SDS011;19119;52.474;13.710;2023-07-24T08:56:21;3.00;;;1.80;;
32748;SDS011;19119;52.474;13.710;2023-07-24T08:58:47;2.95;;;1.65;;
32748;SDS011;19119;52.474;13.710;2023-07-24T09:01:12;3.35;;;1.55;;
32748;SDS011;19119;52.474;13.710;2023-07-24T09:03:38;2.10;;;1.65;;
32748;SDS011;19119;52.474;13.710;2023-07-24T09:06:03;3.85;;;1.50;;
32748;SDS011;19119;52.474;13.710;2023-07-24T09:08:32;2.05;;;1.20;;
32748;SDS011;19119;52.474;13.710;2023-07-24T09:11:00;2.90;;;1.65;;
32748;SDS011;19119;52.474;13.710;2023-07-24T09:13:27;2.80;;;1.50;;
32748;SDS011;19119;52.474;13.710;2023-07-24T09:15:53;2.40;;;1.42;;
32748;SDS011;19119;52.474;13.710;2023-07-24T09:18:19;4.03;;;1.50;;
32748;SDS011;19119;52.474;13.710;2023-07-24T09:20:45;2.28;;;1.40;;
32748;SDS011;19119;52.474;13.710;2023-07-24T09:23:11;2.20;;;1.27;;
32748;SDS011;19119;52.474;13.710;2023-07-24T09:25:39;1.83;;;1.23;;
32748;SDS011;19119;52.474;13.710;2023-07-24T09:28:14;6.70;;;2.20;;
32748;SDS011;19119;52.474;13.710;2023-07-24T09:30:41;6.13;;;1.60;;
32748;SDS011;19119;52.474;13.710;2023-07-24T09:33:15;2.45;;;1.52;;
32748;SDS011;19119;52.474;13.710;2023-07-24T09:35:41;3.58;;;1.73;;
32748;SDS011;19119;52.474;13.710;2023-07-24T09:38:07;3.95;;;1.50;;
32748;SDS011;19119;52.474;13.710;2023-07-24T09:40:37;2.10;;;1.45;;
32748;SDS011;19119;52.474;13.710;2023-07-24T09:43:18;2.72;;;1.60;;
32748;SDS011;19119;52.474;13.710;2023-07-24T09:45:48;3.15;;;1.48;;
32748;SDS011;19119;52.474;13.710;2023-07-24T09:48:15;2.47;;;1.50;;
32748;SDS011;19119;52.474;13.710;2023-07-24T09:50:43;2.97;;;1.40;;
32748;SDS011;19119;52.474;13.710;2023-07-24T09:54:15;2.30;;;1.17;;
32748;SDS011;19119;52.474;13.710;2023-07-24T09:56:19;2.50;;;1.17;;
32748;SDS011;19119;52.474;13.710;2023-07-24T09:58:45;2.60;;;1.50;;
32748;SDS011;19119;52.474;13.710;2023-07-24T10:01:14;2.90;;;1.52;;
32748;SDS011;19119;52.474;13.710;2023-07-24T10:03:50;3.92;;;2.30;;
32748;SDS011;19119;52.474;13.710;2023-07-24T10:06:16;4.70;;;1.80;;
32748;SDS011;19119;52.474;13.710;2023-07-24T10:08:42;3.78;;;1.80;;
32748;SDS011;19119;52.474;13.710;2023-07-24T10:11:09;3.28;;;1.90;;
32748;SDS011;19119;52.474;13.710;2023-07-24T10:13:39;3.25;;;1.67;;
32748;SDS011;19119;52.474;13.710;2023-07-24T10:16:05;3.88;;;1.90;;
32748;SDS011;19119;52.474;13.710;2023-07-24T10:18:34;4.95;;;1.85;;
32748;SDS011;19119;52.474;13.710;2023-07-24T10:21:07;4.05;;;2.15;;
32748;SDS011;19119;52.474;13.710;2023-07-24T10:23:40;4.60;;;1.70;;
32748;SDS011;19119;52.474;13.710;2023-07-24T10:26:08;10.75;;;2.08;;
32748;SDS011;19119;52.474;13.710;2023-07-24T10:28:35;3.45;;;1.88;;
32748;SDS011;19119;52.474;13.710;2023-07-24T10:31:19;3.47;;;1.92;;
32748;SDS011;19119;52.474;13.710;2023-07-24T10:33:46;5.23;;;2.37;;
32748;SDS011;19119;52.474;13.710;2023-07-24T10:36:12;3.72;;;2.10;;
32748;SDS011;19119;52.474;13.710;2023-07-24T10:38:42;3.20;;;2.10;;
32748;SDS011;19119;52.474;13.710;2023-07-24T10:41:09;3.78;;;2.22;;
32748;SDS011;19119;52.474;13.710;2023-07-24T10:43:45;3.25;;;2.28;;
32748;SDS011;19119;52.474;13.710;2023-07-24T10:46:15;5.85;;;2.20;;
32748;SDS011;19119;52.474;13.710;2023-07-24T10:48:42;4.95;;;2.38;;
32748;SDS011;19119;52.474;13.710;2023-07-24T10:51:13;3.97;;;2.30;;
32748;SDS011;19119;52.474;13.710;2023-07-24T10:53:42;6.55;;;2.65;;
32748;SDS011;19119;52.474;13.710;2023-07-24T10:56:09;4.10;;;2.40;;
32748;SDS011;19119;52.474;13.710;2023-07-24T10:58:34;4.43;;;2.83;;
32748;SDS011;19119;52.474;13.710;2023-07-24T11:01:03;4.22;;;2.55;;
32748;SDS011;19119;52.474;13.710;2023-07-24T11:03:29;6.03;;;3.20;;
32748;SDS011;19119;52.474;13.710;2023-07-24T11:05:57;4.80;;;2.90;;
32748;SDS011;19119;52.474;13.710;2023-07-24T11:08:23;4.05;;;2.40;;
32748;SDS011;19119;52.474;13.710;2023-07-24T11:10:50;4.47;;;2.47;;
32748;SDS011;19119;52.474;13.710;2023-07-24T11:13:18;5.32;;;3.00;;
32748;SDS011;19119;52.474;13.710;2023-07-24T11:15:45;6.45;;;3.20;;
32748;SDS011;19119;52.474;13.710;2023-07-24T11:18:10;6.32;;;2.60;;
32748;SDS011;19119;52.474;13.710;2023-07-24T11:20:58;4.20;;;2.75;;
32748;SDS011;19119;52.474;13.710;2023-07-24T11:23:23;4.43;;;2.97;;
32748;SDS011;19119;52.474;13.710;2023-07-24T11:25:52;4.53;;;2.55;;
32748;SDS011;19119;52.474;13.710;2023-07-24T11:28:18;6.13;;;2.90;;
32748;SDS011;19119;52.474;13.710;2023-07-24T11:30:44;6.15;;;2.88;;
32748;SDS011;19119;52.474;13.710;2023-07-24T11:33:11;5.10;;;3.00;;
32748;SDS011;19119;52.474;13.710;2023-07-24T11:35:37;5.75;;;2.95;;
32748;SDS011;19119;52.474;13.710;2023-07-24T11:38:05;4.30;;;3.20;;
32748;SDS011;19119;52.474;13.710;2023-07-24T11:40:43;6.45;;;3.03;;
32748;SDS011;19119;52.474;13.710;2023-07-24T11:43:16;6.38;;;3.65;;
32748;SDS011;19119;52.474;13.710;2023-07-24T11:45:43;5.30;;;3.28;;
32748;SDS011;19119;52.474;13.710;2023-07-24T11:48:09;6.60;;;3.10;;
32748;SDS011;19119;52.474;13.710;2023-07-24T11:50:47;6.68;;;3.85;;
32748;SDS011;19119;52.474;13.710;2023-07-24T11:53:24;4.78;;;2.72;;
32748;SDS011;19119;52.474;13.710;2023-07-24T11:55:50;7.90;;;3.50;;
32748;SDS011;19119;52.474;13.710;2023-07-24T11:58:16;11.85;;;3.65;;
32748;SDS011;19119;52.474;13.710;2023-07-24T12:00:42;5.85;;;3.33;;
32748;SDS011;19119;52.474;13.710;2023-07-24T12:03:08;7.65;;;2.95;;
32748;SDS011;19119;52.474;13.710;2023-07-24T12:05:37;5.85;;;3.25;;
32748;SDS011;19119;52.474;13.710;2023-07-24T12:08:07;5.93;;;3.78;;
32748;SDS011;19119;52.474;13.710;2023-07-24T12:10:35;5.47;;;3.58;;
32748;SDS011;19119;52.474;13.710;2023-07-24T12:13:02;9.93;;;3.03;;
32748;SDS011;19119;52.474;13.710;2023-07-24T12:15:27;5.63;;;3.75;;
32748;SDS011;19119;52.474;13.710;2023-07-24T12:17:53;7.20;;;3.63;;
32748;SDS011;19119;52.474;13.710;2023-07-24T12:20:19;6.70;;;3.45;;
32748;SDS011;19119;52.474;13.710;2023-07-24T12:22:45;9.80;;;3.85;;
32748;SDS011;19119;52.474;13.710;2023-07-24T12:25:12;7.72;;;3.65;;
32748;SDS011;19119;52.474;13.710;2023-07-24T12:27:37;5.63;;;3.70;;
32748;SDS011;19119;52.474;13.710;2023-07-24T12:30:04;6.78;;;3.58;;
32748;SDS011;19119;52.474;13.710;2023-07-24T12:32:31;5.38;;;3.13;;
32748;SDS011;19119;52.474;13.710;2023-07-24T12:34:56;4.95;;;3.25;;
32748;SDS011;19119;52.474;13.710;2023-07-24T12:37:22;10.00;;;3.65;;
32748;SDS011;19119;52.474;13.710;2023-07-24T12:39:48;7.43;;;3.25;;
32748;SDS011;19119;52.474;13.710;2023-07-24T12:42:13;6.72;;;3.78;;
32748;SDS011;19119;52.474;13.710;2023-07-24T12:44:40;5.43;;;3.47;;
32748;SDS011;19119;52.474;13.710;2023-07-24T12:47:07;8.35;;;3.70;;
32748;SDS011;19119;52.474;13.710;2023-07-24T12:49:32;5.63;;;3.58;;
32748;SDS011;19119;52.474;13.710;2023-07-24T12:51:58;7.65;;;3.80;;
32748;SDS011;19119;52.474;13.710;2023-07-24T12:54:24;5.45;;;3.88;;
32748;SDS011;19119;52.474;13.710;2023-07-24T12:56:49;8.23;;;4.25;;
32748;SDS011;19119;52.474;13.710;2023-07-24T12:59:15;10.23;;;4.20;;
32748;SDS011;19119;52.474;13.710;2023-07-24T13:01:43;7.22;;;3.67;;
32748;SDS011;19119;52.474;13.710;2023-07-24T13:04:09;7.22;;;4.15;;
32748;SDS011;19119;52.474;13.710;2023-07-24T13:06:35;8.07;;;4.03;;
32748;SDS011;19119;52.474;13.710;2023-07-24T13:09:01;5.40;;;3.30;;
32748;SDS011;19119;52.474;13.710;2023-07-24T13:11:27;8.32;;;3.63;;
32748;SDS011;19119;52.474;13.710;2023-07-24T13:13:54;4.78;;;3.50;;
32748;SDS011;19119;52.474;13.710;2023-07-24T13:16:20;7.50;;;3.47;;
32748;SDS011;19119;52.474;13.710;2023-07-24T13:18:46;7.00;;;3.53;;
32748;SDS011;19119;52.474;13.710;2023-07-24T13:21:11;6.95;;;3.60;;
32748;SDS011;19119;52.474;13.710;2023-07-24T13:23:37;4.88;;;2.78;;
32748;SDS011;19119;52.474;13.710;2023-07-24T13:26:02;4.82;;;3.08;;
32748;SDS011;19119;52.474;13.710;2023-07-24T13:28:28;9.45;;;3.47;;
32748;SDS011;19119;52.474;13.710;2023-07-24T13:30:53;5.65;;;3.38;;
32748;SDS011;19119;52.474;13.710;2023-07-24T13:33:19;9.63;;;4.47;;
32748;SDS011;19119;52.474;13.710;2023-07-24T13:35:46;6.68;;;3.03;;
32748;SDS011;19119;52.474;13.710;2023-07-24T13:38:12;6.70;;;3.33;;
32748;SDS011;19119;52.474;13.710;2023-07-24T13:40:38;4.60;;;3.00;;
32748;SDS011;19119;52.474;13.710;2023-07-24T13:43:03;6.10;;;2.97;;
32748;SDS011;19119;52.474;13.710;2023-07-24T13:45:29;5.47;;;3.22;;
32748;SDS011;19119;52.474;13.710;2023-07-24T13:47:56;6.70;;;3.28;;
32748;SDS011;19119;52.474;13.710;2023-07-24T13:50:22;5.88;;;2.80;;
32748;SDS011;19119;52.474;13.710;2023-07-24T13:52:47;4.82;;;3.10;;
32748;SDS011;19119;52.474;13.710;2023-07-24T13:55:13;5.03;;;2.70;;
32748;SDS011;19119;52.474;13.710;2023-07-24T13:57:39;4.63;;;3.20;;
32748;SDS011;19119;52.474;13.710;2023-07-24T14:00:05;8.20;;;3.28;;
32748;SDS011;19119;52.474;13.710;2023-07-24T14:02:31;11.38;;;4.20;;
32748;SDS011;19119;52.474;13.710;2023-07-24T14:04:56;7.93;;;3.00;;
32748;SDS011;19119;52.474;13.710;2023-07-24T14:07:21;4.50;;;3.03;;
32748;SDS011;19119;52.474;13.710;2023-07-24T14:09:47;6.18;;;2.75;;
32748;SDS011;19119;52.474;13.710;2023-07-24T14:12:13;25.00;;;3.78;;
32748;SDS011;19119;52.474;13.710;2023-07-24T14:14:38;6.20;;;2.85;;
32748;SDS011;19119;52.474;13.710;2023-07-24T14:17:04;6.82;;;3.30;;
32748;SDS011;19119;52.474;13.710;2023-07-24T14:19:29;4.68;;;2.55;;
32748;SDS011;19119;52.474;13.710;2023-07-24T14:21:55;6.10;;;2.80;;
32748;SDS011;19119;52.474;13.710;2023-07-24T14:24:20;7.35;;;3.38;;
32748;SDS011;19119;52.474;13.710;2023-07-24T14:26:46;6.75;;;3.60;;
32748;SDS011;19119;52.474;13.710;2023-07-24T14:29:12;7.88;;;3.00;;
32748;SDS011;19119;52.474;13.710;2023-07-24T14:31:38;6.00;;;3.00;;
32748;SDS011;19119;52.474;13.710;2023-07-24T14:34:03;6.97;;;3.47;;
32748;SDS011;19119;52.474;13.710;2023-07-24T14:36:29;5.88;;;3.45;;
32748;SDS011;19119;52.474;13.710;2023-07-24T14:39:02;8.77;;;3.45;;